sensor_id;sensor_type;location;lat;lon;timestamp;temperature;humidity
57088;DHT22;42965;52.846;6.614;2023-10-08T00:00:26;14.30;99.90
57088;DHT22;42965;52.846;6.614;2023-10-08T00:03:12;14.30;99.90
57088;DHT22;42965;52.846;6.614;2023-10-08T00:05:40;14.20;99.90
57088;DHT22;42965;52.846;6.614;2023-10-08T00:08:07;14.20;99.90
57088;DHT22;42965;52.846;6.614;2023-10-08T00:10:38;14.10;99.90
57088;DHT22;42965;52.846;6.614;2023-10-08T00:13:07;14.00;99.90
57088;DHT22;42965;52.846;6.614;2023-10-08T00:15:36;14.00;99.90
57088;DHT22;42965;52.846;6.614;2023-10-08T00:18:06;14.10;99.90
57088;DHT22;42965;52.846;6.614;2023-10-08T00:20:35;14.00;99.90
57088;DHT22;42965;52.846;6.614;2023-10-08T00:23:22;14.00;99.90
57088;DHT22;42965;52.846;6.614;2023-10-08T00:25:53;14.00;99.90
57088;DHT22;42965;52.846;6.614;2023-10-08T00:28:21;14.00;99.90
57088;DHT22;42965;52.846;6.614;2023-10-08T00:30:48;14.00;99.90
57088;DHT22;42965;52.846;6.614;2023-10-08T00:33:15;14.00;99.90
57088;DHT22;42965;52.846;6.614;2023-10-08T00:35:43;14.00;99.90
57088;DHT22;42965;52.846;6.614;2023-10-08T00:38:10;14.00;99.90
57088;DHT22;42965;52.846;6.614;2023-10-08T00:40:47;14.00;99.90
57088;DHT22;42965;52.846;6.614;2023-10-08T00:43:32;14.00;99.90
57088;DHT22;42965;52.846;6.614;2023-10-08T00:46:07;13.90;99.90
57088;DHT22;42965;52.846;6.614;2023-10-08T00:48:52;13.90;99.90
57088;DHT22;42965;52.846;6.614;2023-10-08T00:51:25;13.90;99.90
57088;DHT22;42965;52.846;6.614;2023-10-08T00:54:03;13.90;99.90
57088;DHT22;42965;52.846;6.614;2023-10-08T00:56:35;13.90;99.90
57088;DHT22;42965;52.846;6.614;2023-10-08T00:59:36;13.90;99.90
57088;DHT22;42965;52.846;6.614;2023-10-08T01:02:11;13.90;99.90
57088;DHT22;42965;52.846;6.614;2023-10-08T01:04:44;13.80;99.90
57088;DHT22;42965;52.846;6.614;2023-10-08T01:07:17;13.70;99.90
57088;DHT22;42965;52.846;6.614;2023-10-08T01:09:45;13.70;99.90
57088;DHT22;42965;52.846;6.614;2023-10-08T01:12:22;13.70;99.90
57088;DHT22;42965;52.846;6.614;2023-10-08T01:14:53;13.70;99.90
57088;DHT22;42965;52.846;6.614;2023-10-08T01:17:25;13.70;99.90
57088;DHT22;42965;52.846;6.614;2023-10-08T01:19:53;13.70;99.90
57088;DHT22;42965;52.846;6.614;2023-10-08T01:22:24;13.70;99.90
57088;DHT22;42965;52.846;6.614;2023-10-08T01:24:55;13.60;99.90
57088;DHT22;42965;52.846;6.614;2023-10-08T01:27:22;13.60;99.90
57088;DHT22;42965;52.846;6.614;2023-10-08T01:29:53;13.60;99.90
57088;DHT22;42965;52.846;6.614;2023-10-08T01:32:21;13.60;99.90
57088;DHT22;42965;52.846;6.614;2023-10-08T01:34:49;13.60;99.90
57088;DHT22;42965;52.846;6.614;2023-10-08T01:37:17;13.60;99.90
57088;DHT22;42965;52.846;6.614;2023-10-08T01:39:47;13.60;99.90
57088;DHT22;42965;52.846;6.614;2023-10-08T01:42:16;13.60;99.90
57088;DHT22;42965;52.846;6.614;2023-10-08T01:44:48;13.60;99.90
57088;DHT22;42965;52.846;6.614;2023-10-08T01:47:15;13.60;99.90
57088;DHT22;42965;52.846;6.614;2023-10-08T01:49:43;13.60;99.90
57088;DHT22;42965;52.846;6.614;2023-10-08T01:52:12;13.50;99.90
57088;DHT22;42965;52.846;6.614;2023-10-08T01:54:49;13.60;99.90
57088;DHT22;42965;52.846;6.614;2023-10-08T01:57:16;13.50;99.90
57088;DHT22;42965;52.846;6.614;2023-10-08T01:59:44;13.60;99.90
57088;DHT22;42965;52.846;6.614;2023-10-08T02:02:10;13.50;99.90
57088;DHT22;42965;52.846;6.614;2023-10-08T02:04:59;13.60;99.90
57088;DHT22;42965;52.846;6.614;2023-10-08T02:07:34;13.60;99.90
57088;DHT22;42965;52.846;6.614;2023-10-08T02:10:21;13.60;99.90
57088;DHT22;42965;52.846;6.614;2023-10-08T02:12:50;13.60;99.90
57088;DHT22;42965;52.846;6.614;2023-10-08T02:15:40;13.60;99.90
57088;DHT22;42965;52.846;6.614;2023-10-08T02:18:06;13.60;99.90
57088;DHT22;42965;52.846;6.614;2023-10-08T02:20:34;13.60;99.90
57088;DHT22;42965;52.846;6.614;2023-10-08T02:23:00;13.50;99.90
57088;DHT22;42965;52.846;6.614;2023-10-08T02:25:27;13.50;99.90
57088;DHT22;42965;52.846;6.614;2023-10-08T02:27:54;13.50;99.90
57088;DHT22;42965;52.846;6.614;2023-10-08T02:30:20;13.60;99.90
57088;DHT22;42965;52.846;6.614;2023-10-08T02:32:46;13.50;99.90
57088;DHT22;42965;52.846;6.614;2023-10-08T02:35:24;13.60;99.90
57088;DHT22;42965;52.846;6.614;2023-10-08T02:37:56;13.50;99.90
57088;DHT22;42965;52.846;6.614;2023-10-08T02:40:23;13.60;99.90
57088;DHT22;42965;52.846;6.614;2023-10-08T02:42:54;13.60;99.90
57088;DHT22;42965;52.846;6.614;2023-10-08T02:45:27;13.60;99.90
57088;DHT22;42965;52.846;6.614;2023-10-08T02:47:54;13.60;99.90
57088;DHT22;42965;52.846;6.614;2023-10-08T02:50:22;13.60;99.90
57088;DHT22;42965;52.846;6.614;2023-10-08T02:52:50;13.60;99.90
57088;DHT22;42965;52.846;6.614;2023-10-08T02:55:17;13.60;99.90
57088;DHT22;42965;52.846;6.614;2023-10-08T02:58:12;13.50;99.90
57088;DHT22;42965;52.846;6.614;2023-10-08T03:00:46;13.50;99.90
57088;DHT22;42965;52.846;6.614;2023-10-08T03:03:13;13.50;99.90
57088;DHT22;42965;52.846;6.614;2023-10-08T03:05:46;13.50;99.90
57088;DHT22;42965;52.846;6.614;2023-10-08T03:08:14;13.50;99.90
57088;DHT22;42965;52.846;6.614;2023-10-08T03:10:46;13.50;99.90
57088;DHT22;42965;52.846;6.614;2023-10-08T03:13:22;13.40;99.90
57088;DHT22;42965;52.846;6.614;2023-10-08T03:15:48;13.40;99.90
57088;DHT22;42965;52.846;6.614;2023-10-08T03:18:30;13.40;99.90
57088;DHT22;42965;52.846;6.614;2023-10-08T03:21:04;13.40;99.90
57088;DHT22;42965;52.846;6.614;2023-10-08T03:23:31;13.30;99.90
57088;DHT22;42965;52.846;6.614;2023-10-08T03:26:03;13.30;99.90
57088;DHT22;42965;52.846;6.614;2023-10-08T03:28:39;13.40;99.90
57088;DHT22;42965;52.846;6.614;2023-10-08T03:31:07;13.30;99.90
57088;DHT22;42965;52.846;6.614;2023-10-08T03:33:45;13.30;99.90
57088;DHT22;42965;52.846;6.614;2023-10-08T03:36:18;13.30;99.90
57088;DHT22;42965;52.846;6.614;2023-10-08T03:38:47;13.30;99.90
57088;DHT22;42965;52.846;6.614;2023-10-08T03:41:26;13.30;99.90
57088;DHT22;42965;52.846;6.614;2023-10-08T03:43:56;13.30;99.90
57088;DHT22;42965;52.846;6.614;2023-10-08T03:46:26;13.20;99.90
57088;DHT22;42965;52.846;6.614;2023-10-08T03:48:52;13.30;99.90
57088;DHT22;42965;52.846;6.614;2023-10-08T03:51:18;13.30;99.90
57088;DHT22;42965;52.846;6.614;2023-10-08T03:53:49;13.30;99.90
57088;DHT22;42965;52.846;6.614;2023-10-08T03:56:26;13.30;99.90
57088;DHT22;42965;52.846;6.614;2023-10-08T03:58:55;13.20;99.90
57088;DHT22;42965;52.846;6.614;2023-10-08T04:01:26;13.20;99.90
57088;DHT22;42965;52.846;6.614;2023-10-08T04:03:58;13.20;99.90
57088;DHT22;42965;52.846;6.614;2023-10-08T04:06:27;13.20;99.90
57088;DHT22;42965;52.846;6.614;2023-10-08T04:09:16;13.20;99.90
57088;DHT22;42965;52.846;6.614;2023-10-08T04:11:52;13.20;99.90
57088;DHT22;42965;52.846;6.614;2023-10-08T04:14:21;13.20;99.90
57088;DHT22;42965;52.846;6.614;2023-10-08T04:16:50;13.20;99.90
57088;DHT22;42965;52.846;6.614;2023-10-08T04:19:22;13.20;99.90
57088;DHT22;42965;52.846;6.614;2023-10-08T04:21:56;13.30;99.90
57088;DHT22;42965;52.846;6.614;2023-10-08T04:24:25;13.20;99.90
57088;DHT22;42965;52.846;6.614;2023-10-08T04:26:56;13.20;99.90
57088;DHT22;42965;52.846;6.614;2023-10-08T04:29:28;13.20;99.90
57088;DHT22;42965;52.846;6.614;2023-10-08T04:31:59;13.20;99.90
57088;DHT22;42965;52.846;6.614;2023-10-08T04:34:48;13.20;99.90
57088;DHT22;42965;52.846;6.614;2023-10-08T04:37:16;13.20;99.90
57088;DHT22;42965;52.846;6.614;2023-10-08T04:39:46;13.20;99.90
57088;DHT22;42965;52.846;6.614;2023-10-08T04:42:27;13.10;99.90
57088;DHT22;42965;52.846;6.614;2023-10-08T04:45:00;13.20;99.90
57088;DHT22;42965;52.846;6.614;2023-10-08T04:47:29;13.20;99.90
57088;DHT22;42965;52.846;6.614;2023-10-08T04:49:58;13.20;99.90
57088;DHT22;42965;52.846;6.614;2023-10-08T04:52:24;13.20;99.90
57088;DHT22;42965;52.846;6.614;2023-10-08T04:54:54;13.20;99.90
57088;DHT22;42965;52.846;6.614;2023-10-08T04:57:22;13.20;99.90
57088;DHT22;42965;52.846;6.614;2023-10-08T04:59:49;13.20;99.90
57088;DHT22;42965;52.846;6.614;2023-10-08T05:02:19;13.20;99.90
57088;DHT22;42965;52.846;6.614;2023-10-08T05:04:51;13.20;99.90
57088;DHT22;42965;52.846;6.614;2023-10-08T05:07:18;13.10;99.90
57088;DHT22;42965;52.846;6.614;2023-10-08T05:10:08;13.10;99.90
57088;DHT22;42965;52.846;6.614;2023-10-08T05:12:49;13.10;99.90
57088;DHT22;42965;52.846;6.614;2023-10-08T05:15:32;13.10;99.90
57088;DHT22;42965;52.846;6.614;2023-10-08T05:18:21;13.10;99.90
57088;DHT22;42965;52.846;6.614;2023-10-08T05:20:47;13.10;99.90
57088;DHT22;42965;52.846;6.614;2023-10-08T05:23:19;13.10;99.90
57088;DHT22;42965;52.846;6.614;2023-10-08T05:25:58;13.00;99.90
57088;DHT22;42965;52.846;6.614;2023-10-08T05:28:38;13.10;99.90
57088;DHT22;42965;52.846;6.614;2023-10-08T05:31:27;13.10;99.90
57088;DHT22;42965;52.846;6.614;2023-10-08T05:34:13;13.10;99.90
57088;DHT22;42965;52.846;6.614;2023-10-08T05:36:59;13.10;99.90
57088;DHT22;42965;52.846;6.614;2023-10-08T05:39:30;13.00;99.90
57088;DHT22;42965;52.846;6.614;2023-10-08T05:42:09;13.00;99.90
57088;DHT22;42965;52.846;6.614;2023-10-08T05:44:41;13.00;99.90
57088;DHT22;42965;52.846;6.614;2023-10-08T05:47:28;13.00;99.90
57088;DHT22;42965;52.846;6.614;2023-10-08T05:49:57;13.00;99.90
57088;DHT22;42965;52.846;6.614;2023-10-08T05:52:46;13.00;99.90
57088;DHT22;42965;52.846;6.614;2023-10-08T05:55:28;13.10;99.90
57088;DHT22;42965;52.846;6.614;2023-10-08T05:58:04;13.10;99.90
57088;DHT22;42965;52.846;6.614;2023-10-08T06:00:44;13.00;99.90
57088;DHT22;42965;52.846;6.614;2023-10-08T06:03:23;13.00;99.90
57088;DHT22;42965;52.846;6.614;2023-10-08T06:06:04;13.10;99.90
57088;DHT22;42965;52.846;6.614;2023-10-08T06:08:40;13.10;99.90
57088;DHT22;42965;52.846;6.614;2023-10-08T06:11:26;13.10;99.90
57088;DHT22;42965;52.846;6.614;2023-10-08T06:14:15;13.10;99.90
57088;DHT22;42965;52.846;6.614;2023-10-08T06:16:54;13.10;99.90
57088;DHT22;42965;52.846;6.614;2023-10-08T06:19:39;13.10;99.90
57088;DHT22;42965;52.846;6.614;2023-10-08T06:22:06;13.20;99.90
57088;DHT22;42965;52.846;6.614;2023-10-08T06:24:32;13.20;99.90
57088;DHT22;42965;52.846;6.614;2023-10-08T06:27:00;13.20;99.90
57088;DHT22;42965;52.846;6.614;2023-10-08T06:29:31;13.30;99.90
57088;DHT22;42965;52.846;6.614;2023-10-08T06:31:58;13.30;99.90
57088;DHT22;42965;52.846;6.614;2023-10-08T06:34:29;13.30;99.90
57088;DHT22;42965;52.846;6.614;2023-10-08T06:36:59;13.30;99.90
57088;DHT22;42965;52.846;6.614;2023-10-08T06:39:25;13.30;99.90
57088;DHT22;42965;52.846;6.614;2023-10-08T06:42:00;13.30;99.90
57088;DHT22;42965;52.846;6.614;2023-10-08T06:44:29;13.30;99.90
57088;DHT22;42965;52.846;6.614;2023-10-08T06:46:59;13.40;99.90
57088;DHT22;42965;52.846;6.614;2023-10-08T06:49:25;13.40;99.90
57088;DHT22;42965;52.846;6.614;2023-10-08T06:51:52;13.50;99.90
57088;DHT22;42965;52.846;6.614;2023-10-08T06:54:19;13.50;99.90
57088;DHT22;42965;52.846;6.614;2023-10-08T06:56:49;13.50;99.90
57088;DHT22;42965;52.846;6.614;2023-10-08T06:59:19;13.50;99.90
57088;DHT22;42965;52.846;6.614;2023-10-08T07:01:52;13.60;99.90
57088;DHT22;42965;52.846;6.614;2023-10-08T07:04:18;13.60;99.90
57088;DHT22;42965;52.846;6.614;2023-10-08T07:06:45;13.60;99.90
57088;DHT22;42965;52.846;6.614;2023-10-08T07:09:15;13.60;99.90
57088;DHT22;42965;52.846;6.614;2023-10-08T07:11:53;13.70;99.90
57088;DHT22;42965;52.846;6.614;2023-10-08T07:14:25;13.70;99.90
57088;DHT22;42965;52.846;6.614;2023-10-08T07:16:56;13.60;99.90
57088;DHT22;42965;52.846;6.614;2023-10-08T07:19:25;13.70;99.90
57088;DHT22;42965;52.846;6.614;2023-10-08T07:22:00;13.70;99.90
57088;DHT22;42965;52.846;6.614;2023-10-08T07:24:46;13.70;99.90
57088;DHT22;42965;52.846;6.614;2023-10-08T07:27:19;13.70;99.90
57088;DHT22;42965;52.846;6.614;2023-10-08T07:29:55;13.80;99.90
57088;DHT22;42965;52.846;6.614;2023-10-08T07:32:31;13.90;99.90
57088;DHT22;42965;52.846;6.614;2023-10-08T07:35:00;14.00;99.90
57088;DHT22;42965;52.846;6.614;2023-10-08T07:37:53;14.10;99.90
57088;DHT22;42965;52.846;6.614;2023-10-08T07:40:20;14.20;99.90
57088;DHT22;42965;52.846;6.614;2023-10-08T07:42:47;14.20;99.90
57088;DHT22;42965;52.846;6.614;2023-10-08T07:45:20;14.30;99.90
57088;DHT22;42965;52.846;6.614;2023-10-08T07:47:48;14.20;99.90
57088;DHT22;42965;52.846;6.614;2023-10-08T07:50:14;14.30;99.90
57088;DHT22;42965;52.846;6.614;2023-10-08T07:52:42;14.30;99.90
57088;DHT22;42965;52.846;6.614;2023-10-08T07:55:11;14.40;99.90
57088;DHT22;42965;52.846;6.614;2023-10-08T07:57:44;14.50;99.90
57088;DHT22;42965;52.846;6.614;2023-10-08T08:00:11;14.60;99.90
57088;DHT22;42965;52.846;6.614;2023-10-08T08:02:52;14.70;99.90
57088;DHT22;42965;52.846;6.614;2023-10-08T08:05:21;14.80;99.90
57088;DHT22;42965;52.846;6.614;2023-10-08T08:07:47;14.80;99.90
57088;DHT22;42965;52.846;6.614;2023-10-08T08:10:16;14.80;99.90
57088;DHT22;42965;52.846;6.614;2023-10-08T08:12:44;15.30;99.90
57088;DHT22;42965;52.846;6.614;2023-10-08T08:15:12;15.80;99.90
57088;DHT22;42965;52.846;6.614;2023-10-08T08:17:43;16.00;99.90
57088;DHT22;42965;52.846;6.614;2023-10-08T08:20:10;16.40;99.90
57088;DHT22;42965;52.846;6.614;2023-10-08T08:22:44;16.60;99.90
57088;DHT22;42965;52.846;6.614;2023-10-08T08:25:17;16.60;99.90
57088;DHT22;42965;52.846;6.614;2023-10-08T08:27:52;16.50;99.90
57088;DHT22;42965;52.846;6.614;2023-10-08T08:30:19;16.40;99.90
57088;DHT22;42965;52.846;6.614;2023-10-08T08:32:47;16.40;99.90
57088;DHT22;42965;52.846;6.614;2023-10-08T08:35:14;16.30;99.90
57088;DHT22;42965;52.846;6.614;2023-10-08T08:37:44;16.30;99.90
57088;DHT22;42965;52.846;6.614;2023-10-08T08:40:12;16.40;99.90
57088;DHT22;42965;52.846;6.614;2023-10-08T08:42:50;16.20;99.90
57088;DHT22;42965;52.846;6.614;2023-10-08T08:45:24;16.10;99.90
57088;DHT22;42965;52.846;6.614;2023-10-08T08:47:51;16.10;99.90
57088;DHT22;42965;52.846;6.614;2023-10-08T08:50:21;16.20;99.90
57088;DHT22;42965;52.846;6.614;2023-10-08T08:52:48;16.40;99.90
57088;DHT22;42965;52.846;6.614;2023-10-08T08:55:15;16.60;99.90
57088;DHT22;42965;52.846;6.614;2023-10-08T08:57:52;16.70;99.90
57088;DHT22;42965;52.846;6.614;2023-10-08T09:00:20;16.90;99.90
57088;DHT22;42965;52.846;6.614;2023-10-08T09:02:48;16.80;99.90
57088;DHT22;42965;52.846;6.614;2023-10-08T09:05:16;16.80;99.90
57088;DHT22;42965;52.846;6.614;2023-10-08T09:07:53;16.90;99.90
57088;DHT22;42965;52.846;6.614;2023-10-08T09:10:21;16.80;99.90
57088;DHT22;42965;52.846;6.614;2023-10-08T09:12:58;16.90;99.90
57088;DHT22;42965;52.846;6.614;2023-10-08T09:15:26;16.90;99.90
57088;DHT22;42965;52.846;6.614;2023-10-08T09:17:53;17.30;99.90
57088;DHT22;42965;52.846;6.614;2023-10-08T09:20:21;18.30;99.90
57088;DHT22;42965;52.846;6.614;2023-10-08T09:23:11;19.10;99.90
57088;DHT22;42965;52.846;6.614;2023-10-08T09:25:42;20.00;99.90
57088;DHT22;42965;52.846;6.614;2023-10-08T09:28:09;20.20;99.90
57088;DHT22;42965;52.846;6.614;2023-10-08T09:30:40;20.20;99.90
57088;DHT22;42965;52.846;6.614;2023-10-08T09:33:11;20.60;99.90
57088;DHT22;42965;52.846;6.614;2023-10-08T09:35:46;20.40;99.90
57088;DHT22;42965;52.846;6.614;2023-10-08T09:38:12;19.90;99.90
57088;DHT22;42965;52.846;6.614;2023-10-08T09:40:39;19.90;99.90
57088;DHT22;42965;52.846;6.614;2023-10-08T09:43:13;19.30;99.90
57088;DHT22;42965;52.846;6.614;2023-10-08T09:48:38;19.30;99.90
57088;DHT22;42965;52.846;6.614;2023-10-08T09:51:10;20.10;99.90
57088;DHT22;42965;52.846;6.614;2023-10-08T09:54:10;20.40;99.90
57088;DHT22;42965;52.846;6.614;2023-10-08T09:56:40;21.20;99.90
57088;DHT22;42965;52.846;6.614;2023-10-08T09:59:07;21.70;99.90
57088;DHT22;42965;52.846;6.614;2023-10-08T10:01:39;21.80;99.90
57088;DHT22;42965;52.846;6.614;2023-10-08T10:04:10;22.40;99.90
57088;DHT22;42965;52.846;6.614;2023-10-08T10:06:37;22.30;99.90
57088;DHT22;42965;52.846;6.614;2023-10-08T10:09:05;22.40;99.90
57088;DHT22;42965;52.846;6.614;2023-10-08T10:11:48;22.10;99.90
57088;DHT22;42965;52.846;6.614;2023-10-08T10:14:15;21.80;97.30
57088;DHT22;42965;52.846;6.614;2023-10-08T10:16:48;21.70;99.20
57088;DHT22;42965;52.846;6.614;2023-10-08T10:19:20;21.30;97.60
57088;DHT22;42965;52.846;6.614;2023-10-08T10:21:47;22.00;96.00
57088;DHT22;42965;52.846;6.614;2023-10-08T10:24:27;22.40;95.80
57088;DHT22;42965;52.846;6.614;2023-10-08T10:27:15;22.30;94.80
57088;DHT22;42965;52.846;6.614;2023-10-08T10:29:42;23.20;94.30
57088;DHT22;42965;52.846;6.614;2023-10-08T10:32:13;23.80;93.10
57088;DHT22;42965;52.846;6.614;2023-10-08T10:34:42;23.20;90.30
57088;DHT22;42965;52.846;6.614;2023-10-08T10:37:10;23.00;90.00
57088;DHT22;42965;52.846;6.614;2023-10-08T10:39:56;22.20;91.80
57088;DHT22;42965;52.846;6.614;2023-10-08T10:42:26;21.60;91.00
57088;DHT22;42965;52.846;6.614;2023-10-08T10:44:55;20.90;93.60
57088;DHT22;42965;52.846;6.614;2023-10-08T10:47:22;21.00;94.20
57088;DHT22;42965;52.846;6.614;2023-10-08T10:49:53;21.30;94.60
57088;DHT22;42965;52.846;6.614;2023-10-08T10:52:31;21.60;93.00
57088;DHT22;42965;52.846;6.614;2023-10-08T10:55:05;22.00;92.00
57088;DHT22;42965;52.846;6.614;2023-10-08T10:57:56;22.00;90.90
57088;DHT22;42965;52.846;6.614;2023-10-08T11:00:30;23.00;90.40
57088;DHT22;42965;52.846;6.614;2023-10-08T11:03:02;23.70;90.00
57088;DHT22;42965;52.846;6.614;2023-10-08T11:05:33;24.30;85.10
57088;DHT22;42965;52.846;6.614;2023-10-08T11:08:07;24.60;80.70
57088;DHT22;42965;52.846;6.614;2023-10-08T11:10:37;24.50;74.90
57088;DHT22;42965;52.846;6.614;2023-10-08T11:13:21;24.70;72.30
57088;DHT22;42965;52.846;6.614;2023-10-08T11:15:54;24.40;73.00
57088;DHT22;42965;52.846;6.614;2023-10-08T11:18:25;24.20;74.10
57088;DHT22;42965;52.846;6.614;2023-10-08T11:21:06;24.30;73.90
57088;DHT22;42965;52.846;6.614;2023-10-08T11:23:47;24.20;72.00
57088;DHT22;42965;52.846;6.614;2023-10-08T11:26:20;23.60;73.80
57088;DHT22;42965;52.846;6.614;2023-10-08T11:28:56;23.30;73.50
57088;DHT22;42965;52.846;6.614;2023-10-08T11:31:25;23.10;74.60
57088;DHT22;42965;52.846;6.614;2023-10-08T11:33:51;22.80;74.00
57088;DHT22;42965;52.846;6.614;2023-10-08T11:36:21;22.40;75.50
57088;DHT22;42965;52.846;6.614;2023-10-08T11:39:11;22.30;76.70
57088;DHT22;42965;52.846;6.614;2023-10-08T11:42:01;22.10;78.30
57088;DHT22;42965;52.846;6.614;2023-10-08T11:44:48;22.20;80.00
57088;DHT22;42965;52.846;6.614;2023-10-08T11:47:18;22.40;79.50
57088;DHT22;42965;52.846;6.614;2023-10-08T11:49:47;23.00;77.40
57088;DHT22;42965;52.846;6.614;2023-10-08T11:52:16;23.50;74.40
57088;DHT22;42965;52.846;6.614;2023-10-08T11:54:47;24.10;74.20
57088;DHT22;42965;52.846;6.614;2023-10-08T11:57:17;24.70;73.40
57088;DHT22;42965;52.846;6.614;2023-10-08T11:59:48;25.40;72.30
57088;DHT22;42965;52.846;6.614;2023-10-08T12:02:14;26.20;69.90
57088;DHT22;42965;52.846;6.614;2023-10-08T12:04:43;25.90;67.90
57088;DHT22;42965;52.846;6.614;2023-10-08T12:07:13;26.60;67.30
57088;DHT22;42965;52.846;6.614;2023-10-08T12:09:43;27.20;67.30
57088;DHT22;42965;52.846;6.614;2023-10-08T12:12:10;26.90;63.60
57088;DHT22;42965;52.846;6.614;2023-10-08T12:14:40;25.90;64.40
57088;DHT22;42965;52.846;6.614;2023-10-08T12:17:06;25.20;65.50
57088;DHT22;42965;52.846;6.614;2023-10-08T12:19:37;24.40;67.20
57088;DHT22;42965;52.846;6.614;2023-10-08T12:22:06;24.00;68.80
57088;DHT22;42965;52.846;6.614;2023-10-08T12:24:34;23.50;69.70
57088;DHT22;42965;52.846;6.614;2023-10-08T12:27:01;23.40;69.10
57088;DHT22;42965;52.846;6.614;2023-10-08T12:29:29;23.50;69.40
57088;DHT22;42965;52.846;6.614;2023-10-08T12:31:57;23.40;70.00
57088;DHT22;42965;52.846;6.614;2023-10-08T12:34:25;23.50;70.20
57088;DHT22;42965;52.846;6.614;2023-10-08T12:36:56;23.70;70.40
57088;DHT22;42965;52.846;6.614;2023-10-08T12:39:22;23.50;70.00
57088;DHT22;42965;52.846;6.614;2023-10-08T12:41:54;23.20;70.80
57088;DHT22;42965;52.846;6.614;2023-10-08T12:44:20;23.40;71.60
57088;DHT22;42965;52.846;6.614;2023-10-08T12:46:47;24.00;69.90
57088;DHT22;42965;52.846;6.614;2023-10-08T12:49:15;24.50;67.90
57088;DHT22;42965;52.846;6.614;2023-10-08T12:51:41;24.40;68.50
57088;DHT22;42965;52.846;6.614;2023-10-08T12:54:11;25.00;67.60
57088;DHT22;42965;52.846;6.614;2023-10-08T12:56:39;25.70;65.70
57088;DHT22;42965;52.846;6.614;2023-10-08T12:59:10;25.60;65.00
57088;DHT22;42965;52.846;6.614;2023-10-08T13:01:46;25.50;65.80
57088;DHT22;42965;52.846;6.614;2023-10-08T13:04:20;24.60;65.90
57088;DHT22;42965;52.846;6.614;2023-10-08T13:06:55;24.70;67.40
57088;DHT22;42965;52.846;6.614;2023-10-08T13:09:27;24.10;67.20
57088;DHT22;42965;52.846;6.614;2023-10-08T13:11:57;23.60;66.70
57088;DHT22;42965;52.846;6.614;2023-10-08T13:14:25;23.70;67.70
57088;DHT22;42965;52.846;6.614;2023-10-08T13:16:52;24.50;67.90
57088;DHT22;42965;52.846;6.614;2023-10-08T13:19:22;24.80;67.00
57088;DHT22;42965;52.846;6.614;2023-10-08T13:21:52;24.20;67.60
57088;DHT22;42965;52.846;6.614;2023-10-08T13:24:19;24.50;67.60
57088;DHT22;42965;52.846;6.614;2023-10-08T13:26:45;25.10;66.50
57088;DHT22;42965;52.846;6.614;2023-10-08T13:29:14;25.20;64.40
57088;DHT22;42965;52.846;6.614;2023-10-08T13:31:41;25.70;64.20
57088;DHT22;42965;52.846;6.614;2023-10-08T13:34:07;25.80;63.50
57088;DHT22;42965;52.846;6.614;2023-10-08T13:36:38;25.90;63.40
57088;DHT22;42965;52.846;6.614;2023-10-08T13:39:08;26.00;64.00
57088;DHT22;42965;52.846;6.614;2023-10-08T13:41:38;25.60;63.40
57088;DHT22;42965;52.846;6.614;2023-10-08T13:44:07;24.30;63.60
57088;DHT22;42965;52.846;6.614;2023-10-08T13:46:34;23.30;65.60
57088;DHT22;42965;52.846;6.614;2023-10-08T13:49:03;22.50;67.60
57088;DHT22;42965;52.846;6.614;2023-10-08T13:51:32;22.00;69.50
57088;DHT22;42965;52.846;6.614;2023-10-08T13:54:01;21.50;70.70
57088;DHT22;42965;52.846;6.614;2023-10-08T13:56:29;21.10;71.90
57088;DHT22;42965;52.846;6.614;2023-10-08T13:59:01;20.70;73.60
57088;DHT22;42965;52.846;6.614;2023-10-08T14:01:39;20.40;75.50
57088;DHT22;42965;52.846;6.614;2023-10-08T14:04:07;20.20;75.10
57088;DHT22;42965;52.846;6.614;2023-10-08T14:06:35;20.10;75.30
57088;DHT22;42965;52.846;6.614;2023-10-08T14:09:03;19.80;76.40
57088;DHT22;42965;52.846;6.614;2023-10-08T14:11:38;19.70;77.60
57088;DHT22;42965;52.846;6.614;2023-10-08T14:14:04;19.70;77.80
57088;DHT22;42965;52.846;6.614;2023-10-08T14:16:37;19.60;80.50
57088;DHT22;42965;52.846;6.614;2023-10-08T14:19:09;19.40;82.90
57088;DHT22;42965;52.846;6.614;2023-10-08T14:21:39;19.40;85.70
57088;DHT22;42965;52.846;6.614;2023-10-08T14:24:16;19.60;87.10
57088;DHT22;42965;52.846;6.614;2023-10-08T14:26:43;19.60;86.70
57088;DHT22;42965;52.846;6.614;2023-10-08T14:29:09;19.40;86.80
57088;DHT22;42965;52.846;6.614;2023-10-08T14:31:43;19.50;86.40
57088;DHT22;42965;52.846;6.614;2023-10-08T14:34:17;19.40;87.40
57088;DHT22;42965;52.846;6.614;2023-10-08T14:36:48;19.40;88.60
57088;DHT22;42965;52.846;6.614;2023-10-08T14:39:33;19.40;88.90
57088;DHT22;42965;52.846;6.614;2023-10-08T14:42:19;19.20;89.50
57088;DHT22;42965;52.846;6.614;2023-10-08T14:45:04;19.20;90.40
57088;DHT22;42965;52.846;6.614;2023-10-08T14:47:38;19.10;90.20
57088;DHT22;42965;52.846;6.614;2023-10-08T14:50:05;18.90;90.80
57088;DHT22;42965;52.846;6.614;2023-10-08T14:52:32;18.80;91.50
57088;DHT22;42965;52.846;6.614;2023-10-08T14:55:00;18.70;93.40
57088;DHT22;42965;52.846;6.614;2023-10-08T14:57:26;18.50;94.30
57088;DHT22;42965;52.846;6.614;2023-10-08T14:59:53;18.40;95.60
57088;DHT22;42965;52.846;6.614;2023-10-08T15:02:20;18.50;97.70
57088;DHT22;42965;52.846;6.614;2023-10-08T15:04:46;18.40;99.50
57088;DHT22;42965;52.846;6.614;2023-10-08T15:07:13;18.40;99.90
57088;DHT22;42965;52.846;6.614;2023-10-08T15:09:44;18.50;99.90
57088;DHT22;42965;52.846;6.614;2023-10-08T15:12:11;18.60;99.90
57088;DHT22;42965;52.846;6.614;2023-10-08T15:14:37;18.60;99.90
57088;DHT22;42965;52.846;6.614;2023-10-08T15:17:04;18.80;99.90
57088;DHT22;42965;52.846;6.614;2023-10-08T15:19:31;18.80;99.90
57088;DHT22;42965;52.846;6.614;2023-10-08T15:22:00;18.80;99.90
57088;DHT22;42965;52.846;6.614;2023-10-08T15:24:27;19.10;99.90
57088;DHT22;42965;52.846;6.614;2023-10-08T15:26:54;19.30;99.90
57088;DHT22;42965;52.846;6.614;2023-10-08T15:29:21;19.80;99.90
57088;DHT22;42965;52.846;6.614;2023-10-08T15:31:54;20.20;99.50
57088;DHT22;42965;52.846;6.614;2023-10-08T15:34:21;20.30;99.60
57088;DHT22;42965;52.846;6.614;2023-10-08T15:36:53;20.00;99.80
57088;DHT22;42965;52.846;6.614;2023-10-08T15:39:19;19.80;99.90
57088;DHT22;42965;52.846;6.614;2023-10-08T15:41:50;19.80;99.90
57088;DHT22;42965;52.846;6.614;2023-10-08T15:44:17;19.50;99.90
57088;DHT22;42965;52.846;6.614;2023-10-08T15:46:44;19.30;99.90
57088;DHT22;42965;52.846;6.614;2023-10-08T15:49:10;19.10;99.90
57088;DHT22;42965;52.846;6.614;2023-10-08T15:51:38;18.90;99.90
57088;DHT22;42965;52.846;6.614;2023-10-08T15:54:06;18.90;99.90
57088;DHT22;42965;52.846;6.614;2023-10-08T15:56:33;18.80;99.90
57088;DHT22;42965;52.846;6.614;2023-10-08T15:59:01;18.70;99.90
57088;DHT22;42965;52.846;6.614;2023-10-08T16:01:27;18.40;99.90